createdAt,value
2022-09-13T00:03:24.084Z,12.60
2022-09-13T00:07:26.835Z,12.60
2022-09-13T00:11:31.251Z,12.70
2022-09-13T00:15:35.814Z,12.60
2022-09-13T00:19:38.494Z,12.70
2022-09-13T00:23:44.385Z,12.60
2022-09-13T00:27:47.295Z,12.60
2022-09-13T00:31:51.387Z,12.60
2022-09-13T00:35:54.067Z,12.20
2022-09-13T00:39:56.773Z,12.20
2022-09-13T00:44:01.623Z,12.10
2022-09-13T00:48:08.820Z,12.10
2022-09-13T00:52:14.945Z,12.20
2022-09-13T00:56:23.032Z,12.00
2022-09-13T01:00:25.830Z,11.90
2022-09-13T01:04:32.693Z,12.00
2022-09-13T01:08:38.116Z,12.00
2022-09-13T01:12:49.534Z,12.10
2022-09-13T01:16:54.295Z,12.00
2022-09-13T01:21:27.049Z,12.00
2022-09-13T01:25:56.905Z,12.10
2022-09-13T01:30:13.503Z,11.90
2022-09-13T01:34:28.634Z,11.80
2022-09-13T01:38:54.363Z,11.80
2022-09-13T01:43:18.490Z,11.50
2022-09-13T01:47:28.527Z,11.60
2022-09-13T01:51:35.910Z,11.70
2022-09-13T01:55:45.174Z,11.40
2022-09-13T01:59:51.729Z,11.40
2022-09-13T02:04:01.878Z,11.30
2022-09-13T02:08:10.627Z,11.10
2022-09-13T02:12:17.229Z,11.30
2022-09-13T02:16:28.257Z,11.40
2022-09-13T02:20:35.737Z,11.40
2022-09-13T02:24:43.082Z,11.40
2022-09-13T02:28:50.476Z,11.40
2022-09-13T02:32:58.844Z,11.50
2022-09-13T02:37:04.920Z,11.30
2022-09-13T02:41:12.809Z,11.40
2022-09-13T02:45:16.210Z,11.20
2022-09-13T02:49:26.432Z,11.20
2022-09-13T02:53:38.304Z,11.30
2022-09-13T02:57:51.838Z,11.20
2022-09-13T03:02:00.636Z,11.10
2022-09-13T03:06:03.417Z,11.20
2022-09-13T03:10:10.138Z,11.40
2022-09-13T03:14:21.747Z,11.50
2022-09-13T03:18:53.923Z,11.40
2022-09-13T03:23:23.381Z,11.30
2022-09-13T03:27:35.852Z,11.40
2022-09-13T03:31:50.458Z,11.20
2022-09-13T03:35:58.205Z,11.10
2022-09-13T03:40:06.549Z,11.00
2022-09-13T03:44:14.934Z,11.00
2022-09-13T03:48:19.031Z,11.10
2022-09-13T03:52:22.079Z,11.00
2022-09-13T03:56:25.108Z,11.00
2022-09-13T04:00:29.554Z,10.90
2022-09-13T04:04:32.924Z,10.70
2022-09-13T04:08:35.747Z,10.80
2022-09-13T04:12:38.599Z,10.80
2022-09-13T04:16:43.288Z,10.80
2022-09-13T04:20:53.968Z,10.70
2022-09-13T04:25:01.506Z,10.60
2022-09-13T04:29:05.123Z,10.80
2022-09-13T04:33:09.282Z,10.90
2022-09-13T04:37:12.132Z,11.10
2022-09-13T04:41:15.871Z,11.10
2022-09-13T04:45:18.868Z,11.30
2022-09-13T04:49:23.070Z,11.00
2022-09-13T04:53:25.904Z,11.00
2022-09-13T04:57:28.696Z,11.00
2022-09-13T05:01:31.591Z,10.90
2022-09-13T05:05:35.778Z,10.90
2022-09-13T05:09:38.616Z,11.00
2022-09-13T05:13:41.376Z,11.00
2022-09-13T05:17:44.269Z,11.00
2022-09-13T05:21:48.367Z,11.00
2022-09-13T05:25:54.848Z,11.20
2022-09-13T05:29:57.610Z,11.50
2022-09-13T05:34:02.467Z,11.60
2022-09-13T05:38:06.622Z,11.80
2022-09-13T05:42:09.410Z,11.80
2022-09-13T05:46:13.961Z,11.80
2022-09-13T05:50:33.139Z,11.80
2022-09-13T05:54:41.976Z,11.80
2022-09-13T05:58:48.271Z,12.00
2022-09-13T06:02:51.174Z,12.30
2022-09-13T06:06:53.987Z,12.40
2022-09-13T06:11:00.099Z,12.50
2022-09-13T06:15:02.944Z,12.80
2022-09-13T06:19:05.987Z,13.00
2022-09-13T06:23:08.732Z,13.10
2022-09-13T06:27:12.817Z,13.20
2022-09-13T06:31:17.410Z,13.40
2022-09-13T06:35:20.194Z,13.50
2022-09-13T06:39:23.120Z,13.70
2022-09-13T06:43:27.604Z,13.90
2022-09-13T06:47:30.802Z,14.20
2022-09-13T06:51:35.132Z,14.60
2022-09-13T06:55:37.879Z,15.00
2022-09-13T06:59:42.104Z,15.10
2022-09-13T07:03:47.416Z,15.40
2022-09-13T07:07:50.168Z,15.70
2022-09-13T07:11:54.728Z,16.00
2022-09-13T07:16:01.876Z,16.40
2022-09-13T07:20:07.607Z,16.80
2022-09-13T07:24:12.165Z,17.10
2022-09-13T07:28:14.879Z,17.50
2022-09-13T07:32:19.659Z,17.70
2022-09-13T07:36:22.425Z,18.00
2022-09-13T07:40:25.262Z,18.30
2022-09-13T07:44:28.019Z,18.90
2022-09-13T07:48:34.376Z,19.00
2022-09-13T07:52:38.089Z,19.70
2022-09-13T07:56:41.870Z,20.00
2022-09-13T08:00:44.648Z,20.90
2022-09-13T08:04:48.756Z,21.50
2022-09-13T08:08:51.797Z,22.80
2022-09-13T08:12:54.664Z,23.60
2022-09-13T08:16:57.888Z,24.70
2022-09-13T08:21:02.331Z,26.50
2022-09-13T08:25:05.747Z,27.90
2022-09-13T08:29:08.527Z,26.10
2022-09-13T08:33:12.320Z,28.00
2022-09-13T08:37:16.443Z,35.00
2022-09-13T08:41:34.961Z,37.50
2022-09-13T08:45:37.972Z,37.70
2022-09-13T08:49:45.280Z,41.60
2022-09-13T08:53:50.195Z,39.10
2022-09-13T08:57:58.111Z,41.30
2022-09-13T09:02:13.808Z,38.40
2022-09-13T09:06:18.054Z,35.00
2022-09-13T09:10:25.291Z,35.50
2022-09-13T09:14:32.938Z,41.30
2022-09-13T09:18:39.983Z,42.20
2022-09-13T09:22:42.826Z,46.40
2022-09-13T09:26:47.035Z,48.90
2022-09-13T09:30:54.092Z,50.00
2022-09-13T09:35:17.495Z,50.00
2022-09-13T09:39:20.273Z,50.80
2022-09-13T09:43:28.374Z,47.70
2022-09-13T09:47:41.062Z,50.10
2022-09-13T09:51:44.627Z,45.80
2022-09-13T09:55:50.394Z,49.60
2022-09-13T10:00:11.880Z,45.90
2022-09-13T10:04:22.469Z,47.70
2022-09-13T10:08:27.753Z,46.20
2022-09-13T10:12:34.179Z,46.10
2022-09-13T10:16:38.423Z,45.50
2022-09-13T10:20:41.279Z,43.90
2022-09-13T10:24:44.527Z,43.40
2022-09-13T10:28:53.031Z,43.20
2022-09-13T10:32:58.327Z,43.00
2022-09-13T10:37:05.528Z,39.90
2022-09-13T10:41:12.240Z,37.30
2022-09-13T10:45:24.596Z,36.40
2022-09-13T10:49:40.763Z,34.40
2022-09-13T10:53:43.898Z,32.20
2022-09-13T10:57:47.977Z,31.40
2022-09-13T11:02:06.373Z,32.30
2022-09-13T11:06:20.992Z,32.10
2022-09-13T11:10:30.095Z,33.60
2022-09-13T11:14:49.566Z,33.10
2022-09-13T11:19:09.628Z,35.80
2022-09-13T11:23:36.675Z,36.50
2022-09-13T11:27:49.703Z,36.10
2022-09-13T11:32:04.366Z,36.10
2022-09-13T11:36:29.801Z,35.30
2022-09-13T11:40:47.464Z,34.70
2022-09-13T11:45:11.607Z,32.50
2022-09-13T11:49:49.868Z,35.00
2022-09-13T11:54:18.165Z,35.50
2022-09-13T11:58:27.781Z,36.30
2022-09-13T12:02:40.325Z,34.30
2022-09-13T12:06:46.288Z,34.50
2022-09-13T12:10:52.803Z,43.30
2022-09-13T12:15:01.625Z,47.00
2022-09-13T12:19:08.898Z,51.60
2022-09-13T12:23:17.140Z,53.60
2022-09-13T12:27:28.091Z,52.50
2022-09-13T12:31:33.202Z,49.10
2022-09-13T12:35:51.710Z,51.30
2022-09-13T12:40:09.130Z,52.20
2022-09-13T12:44:40.505Z,52.60
2022-09-13T12:49:17.510Z,53.20
2022-09-13T12:53:43.714Z,53.60
2022-09-13T12:57:56.241Z,53.30
2022-09-13T13:02:00.287Z,52.60
2022-09-13T13:06:16.385Z,51.30
2022-09-13T13:10:26.978Z,51.80
2022-09-13T13:14:45.170Z,50.10
2022-09-13T13:18:50.940Z,47.40
2022-09-13T13:23:05.003Z,44.80
2022-09-13T13:27:42.735Z,44.90
2022-09-13T13:32:10.028Z,46.60
2022-09-13T13:36:25.715Z,46.20
2022-09-13T13:40:30.165Z,45.00
2022-09-13T13:45:09.629Z,44.00
2022-09-13T13:49:52.632Z,43.20
2022-09-13T13:54:02.659Z,41.70
2022-09-13T13:58:16.291Z,41.30
2022-09-13T14:02:24.192Z,41.50
2022-09-13T14:06:33.609Z,37.90
2022-09-13T14:10:45.455Z,34.50
2022-09-13T14:15:07.602Z,33.10
2022-09-13T14:19:24.169Z,32.70
2022-09-13T14:23:27.533Z,34.00
2022-09-13T14:27:32.596Z,34.70
2022-09-13T14:31:38.134Z,33.00
2022-09-13T14:35:42.536Z,32.00
2022-09-13T14:39:55.787Z,31.00
2022-09-13T14:44:22.474Z,31.30
2022-09-13T14:48:32.163Z,30.70
2022-09-13T14:52:38.000Z,30.10
2022-09-13T14:56:44.322Z,29.60
2022-09-13T15:00:51.948Z,29.30
2022-09-13T15:04:58.519Z,29.30
2022-09-13T15:09:18.523Z,28.80
2022-09-13T15:13:21.286Z,28.40
2022-09-13T15:17:24.046Z,27.90
2022-09-13T15:21:28.406Z,27.70
2022-09-13T15:25:32.144Z,27.80
2022-09-13T15:29:37.503Z,27.80
2022-09-13T15:33:40.289Z,27.30
2022-09-13T15:37:44.467Z,27.00
2022-09-13T15:41:54.790Z,27.30
2022-09-13T15:45:58.778Z,26.80
2022-09-13T15:50:01.583Z,26.20
2022-09-13T15:54:13.779Z,26.50
2022-09-13T15:58:16.530Z,26.60
2022-09-13T16:02:23.608Z,26.70
2022-09-13T16:06:26.906Z,26.70
2022-09-13T16:10:31.103Z,26.70
2022-09-13T16:14:34.593Z,26.50
2022-09-13T16:18:37.359Z,26.60
2022-09-13T16:22:40.105Z,26.40
2022-09-13T16:26:45.041Z,26.20
2022-09-13T16:30:48.478Z,26.10
2022-09-13T16:34:51.232Z,26.00
2022-09-13T16:38:54.009Z,25.80
2022-09-13T16:42:58.152Z,25.70
2022-09-13T16:47:00.908Z,25.50
2022-09-13T16:51:04.280Z,25.40
2022-09-13T16:55:08.292Z,25.20
2022-09-13T16:59:12.376Z,25.10
2022-09-13T17:03:15.213Z,25.00
2022-09-13T17:07:18.448Z,24.80
2022-09-13T17:11:23.307Z,24.60
2022-09-13T17:15:27.513Z,24.40
2022-09-13T17:19:33.942Z,24.30
2022-09-13T17:23:36.980Z,24.00
2022-09-13T17:27:39.919Z,23.90
2022-09-13T17:31:44.300Z,23.70
2022-09-13T17:35:47.105Z,23.60
2022-09-13T17:39:49.970Z,23.50
2022-09-13T17:43:52.905Z,23.30
2022-09-13T17:47:58.891Z,23.30
2022-09-13T17:52:01.659Z,23.20
2022-09-13T17:56:04.513Z,23.10
2022-09-13T18:00:09.612Z,23.00
2022-09-13T18:04:15.266Z,22.90
2022-09-13T18:08:18.073Z,22.80
2022-09-13T18:12:21.488Z,22.70
2022-09-13T18:16:25.775Z,22.70
2022-09-13T18:20:30.065Z,22.60
2022-09-13T18:24:33.563Z,22.50
2022-09-13T18:28:36.551Z,22.40
2022-09-13T18:32:39.283Z,22.30
2022-09-13T18:36:43.573Z,22.20
2022-09-13T18:40:46.382Z,22.10
2022-09-13T18:44:49.153Z,22.00
2022-09-13T18:48:54.213Z,21.90
2022-09-13T18:52:58.513Z,21.80
2022-09-13T18:57:01.357Z,21.80
2022-09-13T19:01:06.268Z,21.70
2022-09-13T19:05:10.937Z,21.60
2022-09-13T19:09:16.177Z,21.30
2022-09-13T19:13:19.191Z,21.30
2022-09-13T19:17:22.210Z,21.40
2022-09-13T19:21:27.387Z,21.30
2022-09-13T19:25:35.436Z,21.20
2022-09-13T19:29:38.598Z,21.20
2022-09-13T19:33:44.269Z,21.10
2022-09-13T19:37:47.316Z,21.00
2022-09-13T19:41:51.599Z,20.90
2022-09-13T19:45:58.553Z,20.80
2022-09-13T19:50:01.943Z,20.80
2022-09-13T19:54:06.151Z,20.70
2022-09-13T19:58:10.358Z,20.60
2022-09-13T20:02:13.211Z,20.60
2022-09-13T20:06:16.347Z,20.50
2022-09-13T20:10:19.472Z,20.40
2022-09-13T20:14:23.598Z,20.30
2022-09-13T20:18:26.377Z,20.20
2022-09-13T20:22:29.192Z,20.20
2022-09-13T20:26:35.749Z,20.20
2022-09-13T20:30:41.477Z,20.00
2022-09-13T20:34:44.362Z,19.90
2022-09-13T20:38:49.580Z,19.80
2022-09-13T20:42:52.889Z,19.70
2022-09-13T20:46:57.091Z,19.70
2022-09-13T20:51:01.397Z,19.70
2022-09-13T20:55:04.441Z,19.70
2022-09-13T20:59:07.191Z,19.60
2022-09-13T21:03:11.299Z,19.50
2022-09-13T21:07:31.871Z,19.60
2022-09-13T21:11:35.967Z,19.60
2022-09-13T21:15:39.113Z,19.40
2022-09-13T21:19:43.257Z,19.50
2022-09-13T21:23:47.794Z,19.50
2022-09-13T21:27:50.615Z,19.50
2022-09-13T21:31:54.432Z,19.50
2022-09-13T21:36:00.596Z,19.60
2022-09-13T21:40:04.061Z,19.60
2022-09-13T21:44:07.182Z,19.60
2022-09-13T21:48:09.927Z,19.60
2022-09-13T21:52:14.051Z,19.50
2022-09-13T21:56:19.037Z,19.50
2022-09-13T22:00:22.867Z,19.60
2022-09-13T22:04:27.155Z,19.50
2022-09-13T22:08:33.322Z,19.40
2022-09-13T22:12:36.084Z,19.40
2022-09-13T22:16:40.369Z,19.30
2022-09-13T22:20:43.163Z,19.40
2022-09-13T22:24:47.268Z,19.40
2022-09-13T22:28:50.386Z,19.50
2022-09-13T22:32:53.119Z,19.50
2022-09-13T22:36:56.112Z,19.50
2022-09-13T22:41:02.438Z,19.50
2022-09-13T22:45:06.072Z,19.50
2022-09-13T22:49:12.061Z,19.50
2022-09-13T22:53:14.850Z,19.40
2022-09-13T22:57:19.147Z,19.40
2022-09-13T23:01:22.885Z,19.30
2022-09-13T23:05:25.691Z,19.40
2022-09-13T23:09:28.579Z,19.30
2022-09-13T23:13:32.792Z,19.20
2022-09-13T23:17:35.663Z,19.20
2022-09-13T23:21:39.042Z,19.20
2022-09-13T23:25:41.846Z,19.10
2022-09-13T23:29:46.903Z,19.00
2022-09-13T23:33:51.491Z,19.00
2022-09-13T23:37:54.702Z,19.00
2022-09-13T23:41:57.438Z,18.80
2022-09-13T23:46:01.766Z,18.60
2022-09-13T23:50:04.993Z,18.30
2022-09-13T23:54:08.179Z,18.00
2022-09-13T23:58:10.898Z,18.00
